sensor_id;sensor_type;location;lat;lon;timestamp;P1;durP1;ratioP1;P2;durP2;ratioP2
1691;SDS011;843;52.054;8.552;2022-10-03T00:00:57;19.37;;;4.37;;
1691;SDS011;843;52.054;8.552;2022-10-03T00:03:52;8.97;;;3.47;;
1691;SDS011;843;52.054;8.552;2022-10-03T00:06:28;10.10;;;3.77;;
1691;SDS011;843;52.054;8.552;2022-10-03T00:09:12;21.10;;;5.77;;
1691;SDS011;843;52.054;8.552;2022-10-03T00:11:51;10.30;;;3.90;;
1691;SDS011;843;52.054;8.552;2022-10-03T00:14:24;13.37;;;5.10;;
1691;SDS011;843;52.054;8.552;2022-10-03T00:16:58;13.90;;;3.70;;
1691;SDS011;843;52.054;8.552;2022-10-03T00:19:30;17.10;;;4.27;;
1691;SDS011;843;52.054;8.552;2022-10-03T00:22:03;14.97;;;4.00;;
1691;SDS011;843;52.054;8.552;2022-10-03T00:24:41;13.10;;;4.73;;
1691;SDS011;843;52.054;8.552;2022-10-03T00:27:15;14.97;;;3.93;;
1691;SDS011;843;52.054;8.552;2022-10-03T00:32:51;19.10;;;5.37;;
1691;SDS011;843;52.054;8.552;2022-10-03T00:35:40;17.27;;;3.50;;
1691;SDS011;843;52.054;8.552;2022-10-03T00:38:21;15.00;;;4.80;;
1691;SDS011;843;52.054;8.552;2022-10-03T00:41:03;16.00;;;4.30;;
1691;SDS011;843;52.054;8.552;2022-10-03T00:43:55;13.67;;;5.30;;
1691;SDS011;843;52.054;8.552;2022-10-03T00:46:47;14.23;;;4.90;;
1691;SDS011;843;52.054;8.552;2022-10-03T00:52:24;16.07;;;3.80;;
1691;SDS011;843;52.054;8.552;2022-10-03T00:55:04;15.13;;;4.27;;
1691;SDS011;843;52.054;8.552;2022-10-03T01:00:27;22.33;;;5.80;;
1691;SDS011;843;52.054;8.552;2022-10-03T01:03:07;9.03;;;5.00;;
1691;SDS011;843;52.054;8.552;2022-10-03T01:05:44;26.13;;;7.33;;
1691;SDS011;843;52.054;8.552;2022-10-03T01:08:28;15.50;;;5.20;;
1691;SDS011;843;52.054;8.552;2022-10-03T01:11:14;16.90;;;5.13;;
1691;SDS011;843;52.054;8.552;2022-10-03T01:13:50;19.00;;;6.20;;
1691;SDS011;843;52.054;8.552;2022-10-03T01:16:28;22.30;;;6.27;;
1691;SDS011;843;52.054;8.552;2022-10-03T01:19:03;25.20;;;5.63;;
1691;SDS011;843;52.054;8.552;2022-10-03T01:21:39;16.83;;;5.70;;
1691;SDS011;843;52.054;8.552;2022-10-03T01:24:15;20.70;;;6.03;;
1691;SDS011;843;52.054;8.552;2022-10-03T01:26:52;15.70;;;6.23;;
1691;SDS011;843;52.054;8.552;2022-10-03T01:29:23;19.03;;;6.10;;
1691;SDS011;843;52.054;8.552;2022-10-03T01:32:12;12.90;;;5.97;;
1691;SDS011;843;52.054;8.552;2022-10-03T01:34:42;12.40;;;6.20;;
1691;SDS011;843;52.054;8.552;2022-10-03T01:37:14;25.30;;;6.57;;
1691;SDS011;843;52.054;8.552;2022-10-03T01:39:48;20.93;;;7.83;;
1691;SDS011;843;52.054;8.552;2022-10-03T01:42:19;23.40;;;7.57;;
1691;SDS011;843;52.054;8.552;2022-10-03T01:45:02;22.93;;;7.73;;
1691;SDS011;843;52.054;8.552;2022-10-03T01:47:41;22.90;;;7.93;;
1691;SDS011;843;52.054;8.552;2022-10-03T01:50:17;19.27;;;8.27;;
1691;SDS011;843;52.054;8.552;2022-10-03T01:52:50;14.00;;;7.63;;
1691;SDS011;843;52.054;8.552;2022-10-03T01:55:20;20.60;;;7.90;;
1691;SDS011;843;52.054;8.552;2022-10-03T01:57:52;20.53;;;8.10;;
1691;SDS011;843;52.054;8.552;2022-10-03T02:00:27;19.70;;;8.50;;
1691;SDS011;843;52.054;8.552;2022-10-03T02:03:01;21.10;;;8.07;;
1691;SDS011;843;52.054;8.552;2022-10-03T02:05:35;15.80;;;7.10;;
1691;SDS011;843;52.054;8.552;2022-10-03T02:08:06;19.10;;;9.53;;
1691;SDS011;843;52.054;8.552;2022-10-03T02:10:42;17.30;;;7.10;;
1691;SDS011;843;52.054;8.552;2022-10-03T02:13:15;14.13;;;6.60;;
1691;SDS011;843;52.054;8.552;2022-10-03T02:16:00;13.90;;;7.23;;
1691;SDS011;843;52.054;8.552;2022-10-03T02:18:34;15.23;;;7.03;;
1691;SDS011;843;52.054;8.552;2022-10-03T02:21:09;25.43;;;7.50;;
1691;SDS011;843;52.054;8.552;2022-10-03T02:23:40;19.73;;;7.70;;
1691;SDS011;843;52.054;8.552;2022-10-03T02:26:23;18.33;;;7.13;;
1691;SDS011;843;52.054;8.552;2022-10-03T02:29:30;20.63;;;8.03;;
1691;SDS011;843;52.054;8.552;2022-10-03T02:38:25;15.00;;;7.97;;
1691;SDS011;843;52.054;8.552;2022-10-03T02:41:11;24.63;;;6.47;;
1691;SDS011;843;52.054;8.552;2022-10-03T02:44:19;17.20;;;6.83;;
1691;SDS011;843;52.054;8.552;2022-10-03T02:50:22;19.83;;;7.33;;
1691;SDS011;843;52.054;8.552;2022-10-03T02:53:13;16.23;;;7.57;;
1691;SDS011;843;52.054;8.552;2022-10-03T02:56:27;18.00;;;7.33;;
1691;SDS011;843;52.054;8.552;2022-10-03T02:59:26;25.20;;;7.80;;
1691;SDS011;843;52.054;8.552;2022-10-03T03:02:06;20.90;;;6.60;;
1691;SDS011;843;52.054;8.552;2022-10-03T03:04:54;18.53;;;6.77;;
1691;SDS011;843;52.054;8.552;2022-10-03T03:07:35;18.40;;;6.83;;
1691;SDS011;843;52.054;8.552;2022-10-03T03:10:31;17.37;;;7.47;;
1691;SDS011;843;52.054;8.552;2022-10-03T03:16:38;17.63;;;7.13;;
1691;SDS011;843;52.054;8.552;2022-10-03T03:19:22;14.67;;;6.83;;
1691;SDS011;843;52.054;8.552;2022-10-03T03:22:15;13.70;;;6.73;;
1691;SDS011;843;52.054;8.552;2022-10-03T03:25:09;15.87;;;7.57;;
1691;SDS011;843;52.054;8.552;2022-10-03T03:27:53;19.07;;;6.33;;
1691;SDS011;843;52.054;8.552;2022-10-03T03:30:27;11.33;;;5.30;;
1691;SDS011;843;52.054;8.552;2022-10-03T03:33:00;12.57;;;7.00;;
1691;SDS011;843;52.054;8.552;2022-10-03T03:35:34;23.33;;;7.20;;
1691;SDS011;843;52.054;8.552;2022-10-03T03:38:13;15.93;;;6.83;;
1691;SDS011;843;52.054;8.552;2022-10-03T03:40:50;15.53;;;6.30;;
1691;SDS011;843;52.054;8.552;2022-10-03T03:43:27;16.57;;;6.63;;
1691;SDS011;843;52.054;8.552;2022-10-03T03:46:04;19.73;;;6.83;;
1691;SDS011;843;52.054;8.552;2022-10-03T03:48:39;19.33;;;6.97;;
1691;SDS011;843;52.054;8.552;2022-10-03T03:51:21;11.07;;;6.30;;
1691;SDS011;843;52.054;8.552;2022-10-03T03:53:59;15.30;;;6.03;;
1691;SDS011;843;52.054;8.552;2022-10-03T03:57:00;11.80;;;6.13;;
1691;SDS011;843;52.054;8.552;2022-10-03T03:59:44;11.40;;;5.67;;
1691;SDS011;843;52.054;8.552;2022-10-03T04:02:23;15.90;;;6.30;;
1691;SDS011;843;52.054;8.552;2022-10-03T04:05:00;14.60;;;6.50;;
1691;SDS011;843;52.054;8.552;2022-10-03T04:07:37;22.13;;;7.20;;
1691;SDS011;843;52.054;8.552;2022-10-03T04:10:18;17.10;;;5.83;;
1691;SDS011;843;52.054;8.552;2022-10-03T04:16:01;18.30;;;6.67;;
1691;SDS011;843;52.054;8.552;2022-10-03T04:18:47;10.47;;;5.37;;
1691;SDS011;843;52.054;8.552;2022-10-03T04:21:38;12.40;;;6.27;;
1691;SDS011;843;52.054;8.552;2022-10-03T04:24:17;16.17;;;6.23;;
1691;SDS011;843;52.054;8.552;2022-10-03T04:26:55;14.37;;;7.10;;
1691;SDS011;843;52.054;8.552;2022-10-03T04:29:36;13.30;;;6.23;;
1691;SDS011;843;52.054;8.552;2022-10-03T04:32:16;18.90;;;6.50;;
1691;SDS011;843;52.054;8.552;2022-10-03T04:34:59;17.53;;;8.17;;
1691;SDS011;843;52.054;8.552;2022-10-03T04:37:33;14.93;;;7.20;;
1691;SDS011;843;52.054;8.552;2022-10-03T04:40:22;10.03;;;5.53;;
1691;SDS011;843;52.054;8.552;2022-10-03T04:42:56;20.50;;;6.30;;
1691;SDS011;843;52.054;8.552;2022-10-03T04:45:37;13.40;;;6.23;;
1691;SDS011;843;52.054;8.552;2022-10-03T04:48:11;15.87;;;7.27;;
1691;SDS011;843;52.054;8.552;2022-10-03T04:50:43;13.23;;;5.87;;
1691;SDS011;843;52.054;8.552;2022-10-03T04:53:23;20.67;;;7.10;;
1691;SDS011;843;52.054;8.552;2022-10-03T04:55:56;15.63;;;7.30;;
1691;SDS011;843;52.054;8.552;2022-10-03T04:58:30;8.10;;;5.57;;
1691;SDS011;843;52.054;8.552;2022-10-03T05:01:04;18.93;;;8.30;;
1691;SDS011;843;52.054;8.552;2022-10-03T05:03:39;12.20;;;6.90;;
1691;SDS011;843;52.054;8.552;2022-10-03T05:06:16;19.30;;;6.90;;
1691;SDS011;843;52.054;8.552;2022-10-03T05:08:53;17.13;;;7.23;;
1691;SDS011;843;52.054;8.552;2022-10-03T05:11:25;12.30;;;6.63;;
1691;SDS011;843;52.054;8.552;2022-10-03T05:14:03;16.10;;;7.20;;
1691;SDS011;843;52.054;8.552;2022-10-03T05:16:36;14.23;;;7.40;;
1691;SDS011;843;52.054;8.552;2022-10-03T05:19:34;14.40;;;6.50;;
1691;SDS011;843;52.054;8.552;2022-10-03T05:22:07;14.57;;;7.50;;
1691;SDS011;843;52.054;8.552;2022-10-03T05:24:38;15.60;;;7.33;;
1691;SDS011;843;52.054;8.552;2022-10-03T05:27:12;14.50;;;6.53;;
1691;SDS011;843;52.054;8.552;2022-10-03T05:29:50;22.13;;;8.70;;
1691;SDS011;843;52.054;8.552;2022-10-03T05:32:19;18.37;;;6.87;;
1691;SDS011;843;52.054;8.552;2022-10-03T05:34:57;17.43;;;8.17;;
1691;SDS011;843;52.054;8.552;2022-10-03T05:37:41;12.10;;;7.10;;
1691;SDS011;843;52.054;8.552;2022-10-03T05:40:19;17.10;;;7.97;;
1691;SDS011;843;52.054;8.552;2022-10-03T05:43:03;15.53;;;8.00;;
1691;SDS011;843;52.054;8.552;2022-10-03T05:45:43;15.47;;;7.93;;
1691;SDS011;843;52.054;8.552;2022-10-03T05:48:14;18.33;;;7.70;;
1691;SDS011;843;52.054;8.552;2022-10-03T05:51:11;16.37;;;8.27;;
1691;SDS011;843;52.054;8.552;2022-10-03T05:54:03;19.33;;;7.10;;
1691;SDS011;843;52.054;8.552;2022-10-03T05:57:03;14.40;;;7.60;;
1691;SDS011;843;52.054;8.552;2022-10-03T05:59:54;17.20;;;8.47;;
1691;SDS011;843;52.054;8.552;2022-10-03T06:02:32;17.87;;;7.77;;
1691;SDS011;843;52.054;8.552;2022-10-03T06:11:10;17.53;;;7.30;;
1691;SDS011;843;52.054;8.552;2022-10-03T06:13:57;17.50;;;8.03;;
1691;SDS011;843;52.054;8.552;2022-10-03T06:16:45;15.77;;;7.63;;
1691;SDS011;843;52.054;8.552;2022-10-03T06:19:20;18.93;;;7.00;;
1691;SDS011;843;52.054;8.552;2022-10-03T06:25:09;16.80;;;6.27;;
1691;SDS011;843;52.054;8.552;2022-10-03T06:28:11;17.40;;;7.93;;
1691;SDS011;843;52.054;8.552;2022-10-03T06:43:07;13.97;;;6.47;;
1691;SDS011;843;52.054;8.552;2022-10-03T06:45:48;13.80;;;6.30;;
1691;SDS011;843;52.054;8.552;2022-10-03T06:57:44;16.30;;;7.10;;
1691;SDS011;843;52.054;8.552;2022-10-03T07:00:22;11.77;;;6.27;;
1691;SDS011;843;52.054;8.552;2022-10-03T07:06:16;17.17;;;7.07;;
1691;SDS011;843;52.054;8.552;2022-10-03T07:12:00;8.77;;;5.30;;
1691;SDS011;843;52.054;8.552;2022-10-03T07:17:34;11.27;;;5.37;;
1691;SDS011;843;52.054;8.552;2022-10-03T07:20:16;7.40;;;4.13;;
1691;SDS011;843;52.054;8.552;2022-10-03T07:23:08;10.83;;;5.33;;
1691;SDS011;843;52.054;8.552;2022-10-03T07:32:04;10.83;;;4.60;;
1691;SDS011;843;52.054;8.552;2022-10-03T07:37:41;9.43;;;4.70;;
1691;SDS011;843;52.054;8.552;2022-10-03T07:40:54;7.73;;;4.30;;
1691;SDS011;843;52.054;8.552;2022-10-03T07:43:35;10.43;;;4.80;;
1691;SDS011;843;52.054;8.552;2022-10-03T07:49:13;11.40;;;4.33;;
1691;SDS011;843;52.054;8.552;2022-10-03T07:51:52;7.27;;;4.20;;
1691;SDS011;843;52.054;8.552;2022-10-03T07:54:36;11.40;;;4.50;;
1691;SDS011;843;52.054;8.552;2022-10-03T08:00:11;8.93;;;3.50;;
1691;SDS011;843;52.054;8.552;2022-10-03T08:03:01;6.30;;;2.90;;
1691;SDS011;843;52.054;8.552;2022-10-03T08:12:03;7.13;;;2.67;;
1691;SDS011;843;52.054;8.552;2022-10-03T08:14:54;9.80;;;2.63;;
1691;SDS011;843;52.054;8.552;2022-10-03T08:20:39;4.13;;;2.37;;
1691;SDS011;843;52.054;8.552;2022-10-03T08:26:08;6.50;;;3.00;;
1691;SDS011;843;52.054;8.552;2022-10-03T08:28:57;7.83;;;3.13;;
1691;SDS011;843;52.054;8.552;2022-10-03T08:31:38;7.97;;;2.80;;
1691;SDS011;843;52.054;8.552;2022-10-03T08:34:22;6.73;;;2.70;;
1691;SDS011;843;52.054;8.552;2022-10-03T08:40:16;6.27;;;3.30;;
1691;SDS011;843;52.054;8.552;2022-10-03T08:43:07;6.30;;;3.80;;
1691;SDS011;843;52.054;8.552;2022-10-03T08:48:56;4.67;;;3.00;;
1691;SDS011;843;52.054;8.552;2022-10-03T08:57:21;5.30;;;1.90;;
1691;SDS011;843;52.054;8.552;2022-10-03T09:00:14;3.90;;;2.90;;
1691;SDS011;843;52.054;8.552;2022-10-03T09:06:01;3.90;;;2.23;;
1691;SDS011;843;52.054;8.552;2022-10-03T09:12:13;3.97;;;2.40;;
1691;SDS011;843;52.054;8.552;2022-10-03T09:14:59;4.00;;;2.77;;
1691;SDS011;843;52.054;8.552;2022-10-03T09:17:56;7.67;;;3.53;;
1691;SDS011;843;52.054;8.552;2022-10-03T09:20:40;6.40;;;2.43;;
1691;SDS011;843;52.054;8.552;2022-10-03T09:23:32;6.70;;;3.00;;
1691;SDS011;843;52.054;8.552;2022-10-03T09:29:28;3.90;;;2.57;;
1691;SDS011;843;52.054;8.552;2022-10-03T09:35:29;5.07;;;2.67;;
1691;SDS011;843;52.054;8.552;2022-10-03T09:38:20;5.80;;;3.10;;
1691;SDS011;843;52.054;8.552;2022-10-03T09:44:25;5.50;;;2.80;;
1691;SDS011;843;52.054;8.552;2022-10-03T09:52:52;4.90;;;2.73;;
1691;SDS011;843;52.054;8.552;2022-10-03T09:55:37;10.90;;;3.10;;
1691;SDS011;843;52.054;8.552;2022-10-03T09:58:25;4.23;;;2.53;;
1691;SDS011;843;52.054;8.552;2022-10-03T10:01:17;4.30;;;2.67;;
1691;SDS011;843;52.054;8.552;2022-10-03T10:10:17;6.90;;;3.23;;
1691;SDS011;843;52.054;8.552;2022-10-03T10:13:03;6.77;;;3.40;;
1691;SDS011;843;52.054;8.552;2022-10-03T10:19:00;5.37;;;2.93;;
1691;SDS011;843;52.054;8.552;2022-10-03T10:21:50;7.03;;;3.33;;
1691;SDS011;843;52.054;8.552;2022-10-03T10:24:39;7.90;;;2.53;;
1691;SDS011;843;52.054;8.552;2022-10-03T10:27:30;5.50;;;3.03;;
1691;SDS011;843;52.054;8.552;2022-10-03T10:30:19;8.50;;;3.50;;
1691;SDS011;843;52.054;8.552;2022-10-03T10:32:58;6.13;;;3.00;;
1691;SDS011;843;52.054;8.552;2022-10-03T10:35:46;7.33;;;2.70;;
1691;SDS011;843;52.054;8.552;2022-10-03T10:38:34;8.67;;;3.17;;
1691;SDS011;843;52.054;8.552;2022-10-03T10:56:34;6.43;;;3.00;;
1691;SDS011;843;52.054;8.552;2022-10-03T10:59:32;6.83;;;2.93;;
1691;SDS011;843;52.054;8.552;2022-10-03T11:02:31;6.20;;;2.87;;
1691;SDS011;843;52.054;8.552;2022-10-03T11:05:38;6.40;;;2.70;;
1691;SDS011;843;52.054;8.552;2022-10-03T11:14:30;6.53;;;2.77;;
1691;SDS011;843;52.054;8.552;2022-10-03T11:17:27;7.60;;;2.70;;
1691;SDS011;843;52.054;8.552;2022-10-03T11:20:43;6.00;;;2.33;;
1691;SDS011;843;52.054;8.552;2022-10-03T11:23:47;6.00;;;1.63;;
1691;SDS011;843;52.054;8.552;2022-10-03T11:29:52;4.87;;;2.10;;
1691;SDS011;843;52.054;8.552;2022-10-03T11:36:05;6.30;;;2.37;;
1691;SDS011;843;52.054;8.552;2022-10-03T11:38:43;6.63;;;2.30;;
1691;SDS011;843;52.054;8.552;2022-10-03T11:41:16;7.97;;;2.30;;
1691;SDS011;843;52.054;8.552;2022-10-03T11:46:56;10.77;;;2.50;;
1691;SDS011;843;52.054;8.552;2022-10-03T11:49:45;4.90;;;1.90;;
1691;SDS011;843;52.054;8.552;2022-10-03T11:52:27;7.20;;;1.70;;
1691;SDS011;843;52.054;8.552;2022-10-03T11:55:01;6.67;;;1.60;;
1691;SDS011;843;52.054;8.552;2022-10-03T11:57:33;6.07;;;2.03;;
1691;SDS011;843;52.054;8.552;2022-10-03T12:00:03;6.03;;;1.80;;
1691;SDS011;843;52.054;8.552;2022-10-03T12:02:44;4.50;;;1.53;;
1691;SDS011;843;52.054;8.552;2022-10-03T12:05:32;5.73;;;2.60;;
1691;SDS011;843;52.054;8.552;2022-10-03T12:08:12;4.33;;;1.47;;
1691;SDS011;843;52.054;8.552;2022-10-03T12:11:03;3.70;;;1.40;;
1691;SDS011;843;52.054;8.552;2022-10-03T12:13:34;8.17;;;2.47;;
1691;SDS011;843;52.054;8.552;2022-10-03T12:16:06;4.70;;;1.40;;
1691;SDS011;843;52.054;8.552;2022-10-03T12:18:48;3.97;;;1.63;;
1691;SDS011;843;52.054;8.552;2022-10-03T12:21:18;7.60;;;1.50;;
1691;SDS011;843;52.054;8.552;2022-10-03T12:24:02;9.20;;;1.93;;
1691;SDS011;843;52.054;8.552;2022-10-03T12:26:43;5.07;;;1.60;;
1691;SDS011;843;52.054;8.552;2022-10-03T12:29:15;6.27;;;1.40;;
1691;SDS011;843;52.054;8.552;2022-10-03T12:31:49;5.43;;;1.30;;
1691;SDS011;843;52.054;8.552;2022-10-03T12:34:36;5.37;;;1.60;;
1691;SDS011;843;52.054;8.552;2022-10-03T12:37:08;6.47;;;1.60;;
1691;SDS011;843;52.054;8.552;2022-10-03T12:39:45;9.57;;;1.60;;
1691;SDS011;843;52.054;8.552;2022-10-03T12:42:22;4.17;;;1.87;;
1691;SDS011;843;52.054;8.552;2022-10-03T12:44:53;7.47;;;1.23;;
1691;SDS011;843;52.054;8.552;2022-10-03T12:47:34;4.30;;;1.40;;
1691;SDS011;843;52.054;8.552;2022-10-03T12:50:13;5.37;;;1.73;;
1691;SDS011;843;52.054;8.552;2022-10-03T12:52:49;5.37;;;1.93;;
1691;SDS011;843;52.054;8.552;2022-10-03T12:55:23;5.93;;;2.17;;
1691;SDS011;843;52.054;8.552;2022-10-03T12:58:02;7.67;;;1.43;;
1691;SDS011;843;52.054;8.552;2022-10-03T13:00:33;3.10;;;1.20;;
1691;SDS011;843;52.054;8.552;2022-10-03T13:03:09;4.43;;;1.20;;
1691;SDS011;843;52.054;8.552;2022-10-03T13:05:53;4.03;;;1.10;;
1691;SDS011;843;52.054;8.552;2022-10-03T13:08:53;2.77;;;1.00;;
1691;SDS011;843;52.054;8.552;2022-10-03T13:11:30;3.93;;;1.40;;
1691;SDS011;843;52.054;8.552;2022-10-03T13:14:05;5.50;;;1.30;;
1691;SDS011;843;52.054;8.552;2022-10-03T13:16:38;5.90;;;1.80;;
1691;SDS011;843;52.054;8.552;2022-10-03T13:19:12;3.30;;;0.97;;
1691;SDS011;843;52.054;8.552;2022-10-03T13:21:49;4.20;;;1.20;;
1691;SDS011;843;52.054;8.552;2022-10-03T13:24:24;3.93;;;1.23;;
1691;SDS011;843;52.054;8.552;2022-10-03T13:26:58;3.87;;;1.17;;
1691;SDS011;843;52.054;8.552;2022-10-03T13:29:32;4.73;;;0.90;;
1691;SDS011;843;52.054;8.552;2022-10-03T13:32:07;3.63;;;1.33;;
1691;SDS011;843;52.054;8.552;2022-10-03T13:34:48;3.83;;;1.30;;
1691;SDS011;843;52.054;8.552;2022-10-03T13:37:24;4.83;;;2.03;;
1691;SDS011;843;52.054;8.552;2022-10-03T13:39:56;7.10;;;1.30;;
1691;SDS011;843;52.054;8.552;2022-10-03T13:42:29;2.50;;;0.80;;
1691;SDS011;843;52.054;8.552;2022-10-03T13:45:03;6.67;;;1.60;;
1691;SDS011;843;52.054;8.552;2022-10-03T13:47:40;5.83;;;1.40;;
1691;SDS011;843;52.054;8.552;2022-10-03T13:50:14;2.83;;;0.90;;
1691;SDS011;843;52.054;8.552;2022-10-03T13:52:44;3.47;;;1.20;;
1691;SDS011;843;52.054;8.552;2022-10-03T13:55:17;3.80;;;1.40;;
1691;SDS011;843;52.054;8.552;2022-10-03T13:58:00;2.70;;;1.10;;
1691;SDS011;843;52.054;8.552;2022-10-03T14:00:50;3.80;;;0.90;;
1691;SDS011;843;52.054;8.552;2022-10-03T14:03:28;6.27;;;1.30;;
1691;SDS011;843;52.054;8.552;2022-10-03T14:08:55;3.90;;;1.20;;
1691;SDS011;843;52.054;8.552;2022-10-03T14:11:36;4.13;;;1.23;;
1691;SDS011;843;52.054;8.552;2022-10-03T14:14:16;7.33;;;1.40;;
1691;SDS011;843;52.054;8.552;2022-10-03T14:16:54;4.00;;;1.50;;
1691;SDS011;843;52.054;8.552;2022-10-03T14:19:25;3.17;;;1.00;;
1691;SDS011;843;52.054;8.552;2022-10-03T14:22:08;4.40;;;1.70;;
1691;SDS011;843;52.054;8.552;2022-10-03T14:27:46;7.77;;;1.30;;
1691;SDS011;843;52.054;8.552;2022-10-03T14:30:16;5.20;;;1.50;;
1691;SDS011;843;52.054;8.552;2022-10-03T14:32:58;4.90;;;0.93;;
1691;SDS011;843;52.054;8.552;2022-10-03T14:35:35;5.30;;;0.90;;
1691;SDS011;843;52.054;8.552;2022-10-03T14:41:12;3.00;;;1.07;;
1691;SDS011;843;52.054;8.552;2022-10-03T14:43:43;3.60;;;0.90;;
1691;SDS011;843;52.054;8.552;2022-10-03T14:46:13;5.93;;;1.53;;
1691;SDS011;843;52.054;8.552;2022-10-03T14:48:42;3.73;;;1.10;;
1691;SDS011;843;52.054;8.552;2022-10-03T14:51:14;3.60;;;1.10;;
1691;SDS011;843;52.054;8.552;2022-10-03T14:53:50;3.63;;;1.07;;
1691;SDS011;843;52.054;8.552;2022-10-03T14:56:19;5.50;;;1.37;;
1691;SDS011;843;52.054;8.552;2022-10-03T14:58:49;6.80;;;1.27;;
1691;SDS011;843;52.054;8.552;2022-10-03T15:01:17;4.23;;;1.37;;
1691;SDS011;843;52.054;8.552;2022-10-03T15:03:51;5.23;;;1.37;;
1691;SDS011;843;52.054;8.552;2022-10-03T15:09:24;9.33;;;1.50;;
1691;SDS011;843;52.054;8.552;2022-10-03T15:11:58;8.17;;;1.43;;
1691;SDS011;843;52.054;8.552;2022-10-03T15:14:29;3.60;;;1.57;;
1691;SDS011;843;52.054;8.552;2022-10-03T15:16:58;7.00;;;2.40;;
1691;SDS011;843;52.054;8.552;2022-10-03T15:19:27;4.90;;;1.33;;
1691;SDS011;843;52.054;8.552;2022-10-03T15:21:57;4.53;;;1.80;;
1691;SDS011;843;52.054;8.552;2022-10-03T15:24:32;2.13;;;1.03;;
1691;SDS011;843;52.054;8.552;2022-10-03T15:27:00;9.83;;;1.30;;
1691;SDS011;843;52.054;8.552;2022-10-03T15:29:29;4.37;;;1.03;;
1691;SDS011;843;52.054;8.552;2022-10-03T15:31:56;5.90;;;1.80;;
1691;SDS011;843;52.054;8.552;2022-10-03T15:34:24;4.47;;;1.40;;
1691;SDS011;843;52.054;8.552;2022-10-03T15:36:56;5.33;;;1.17;;
1691;SDS011;843;52.054;8.552;2022-10-03T15:39:27;6.50;;;1.53;;
1691;SDS011;843;52.054;8.552;2022-10-03T15:42:00;5.10;;;1.90;;
1691;SDS011;843;52.054;8.552;2022-10-03T15:44:32;4.73;;;1.20;;
1691;SDS011;843;52.054;8.552;2022-10-03T15:47:04;5.90;;;1.30;;
1691;SDS011;843;52.054;8.552;2022-10-03T15:49:34;3.50;;;1.47;;
1691;SDS011;843;52.054;8.552;2022-10-03T15:52:06;3.20;;;1.23;;
1691;SDS011;843;52.054;8.552;2022-10-03T15:54:38;5.63;;;1.00;;
1691;SDS011;843;52.054;8.552;2022-10-03T15:57:15;4.33;;;1.30;;
1691;SDS011;843;52.054;8.552;2022-10-03T15:59:44;3.10;;;1.00;;
1691;SDS011;843;52.054;8.552;2022-10-03T16:02:17;3.50;;;1.90;;
1691;SDS011;843;52.054;8.552;2022-10-03T16:04:45;8.33;;;1.83;;
1691;SDS011;843;52.054;8.552;2022-10-03T16:07:16;5.20;;;1.20;;
1691;SDS011;843;52.054;8.552;2022-10-03T16:09:48;6.70;;;1.80;;
1691;SDS011;843;52.054;8.552;2022-10-03T16:12:31;3.60;;;1.30;;
1691;SDS011;843;52.054;8.552;2022-10-03T16:15:19;5.00;;;1.40;;
1691;SDS011;843;52.054;8.552;2022-10-03T16:17:47;4.67;;;1.63;;
1691;SDS011;843;52.054;8.552;2022-10-03T16:20:17;3.57;;;1.40;;
1691;SDS011;843;52.054;8.552;2022-10-03T16:22:46;7.60;;;2.13;;
1691;SDS011;843;52.054;8.552;2022-10-03T16:25:16;4.27;;;1.50;;
1691;SDS011;843;52.054;8.552;2022-10-03T16:27:48;9.43;;;2.60;;
1691;SDS011;843;52.054;8.552;2022-10-03T16:30:19;4.07;;;1.60;;
1691;SDS011;843;52.054;8.552;2022-10-03T16:32:48;6.03;;;2.20;;
1691;SDS011;843;52.054;8.552;2022-10-03T16:35:34;4.00;;;1.50;;
1691;SDS011;843;52.054;8.552;2022-10-03T16:38:04;4.60;;;2.40;;
1691;SDS011;843;52.054;8.552;2022-10-03T16:40:33;5.37;;;1.90;;
1691;SDS011;843;52.054;8.552;2022-10-03T16:43:03;4.70;;;2.73;;
1691;SDS011;843;52.054;8.552;2022-10-03T16:45:34;6.63;;;2.00;;
1691;SDS011;843;52.054;8.552;2022-10-03T16:48:08;5.97;;;2.53;;
1691;SDS011;843;52.054;8.552;2022-10-03T16:50:53;6.17;;;2.60;;
1691;SDS011;843;52.054;8.552;2022-10-03T16:53:20;7.67;;;2.37;;
1691;SDS011;843;52.054;8.552;2022-10-03T16:55:48;5.70;;;2.90;;
1691;SDS011;843;52.054;8.552;2022-10-03T16:58:19;6.47;;;2.53;;
1691;SDS011;843;52.054;8.552;2022-10-03T17:00:49;9.40;;;3.10;;
1691;SDS011;843;52.054;8.552;2022-10-03T17:03:18;7.77;;;2.70;;
1691;SDS011;843;52.054;8.552;2022-10-03T17:05:47;6.27;;;3.50;;
1691;SDS011;843;52.054;8.552;2022-10-03T17:08:16;5.90;;;3.23;;
1691;SDS011;843;52.054;8.552;2022-10-03T17:10:44;9.97;;;3.50;;
1691;SDS011;843;52.054;8.552;2022-10-03T17:13:12;6.13;;;3.47;;
1691;SDS011;843;52.054;8.552;2022-10-03T17:15:46;6.70;;;3.30;;
1691;SDS011;843;52.054;8.552;2022-10-03T17:18:20;11.00;;;3.23;;
1691;SDS011;843;52.054;8.552;2022-10-03T17:20:51;6.67;;;2.87;;
1691;SDS011;843;52.054;8.552;2022-10-03T17:23:21;8.50;;;3.07;;
1691;SDS011;843;52.054;8.552;2022-10-03T17:25:56;6.23;;;2.80;;
1691;SDS011;843;52.054;8.552;2022-10-03T17:28:28;7.30;;;2.50;;
1691;SDS011;843;52.054;8.552;2022-10-03T17:31:00;5.37;;;2.43;;
1691;SDS011;843;52.054;8.552;2022-10-03T17:33:31;13.77;;;3.20;;
1691;SDS011;843;52.054;8.552;2022-10-03T17:36:09;5.77;;;3.20;;
1691;SDS011;843;52.054;8.552;2022-10-03T17:38:58;5.27;;;3.53;;
1691;SDS011;843;52.054;8.552;2022-10-03T17:41:30;8.37;;;3.27;;
1691;SDS011;843;52.054;8.552;2022-10-03T17:44:12;8.23;;;3.63;;
1691;SDS011;843;52.054;8.552;2022-10-03T17:46:45;10.17;;;5.60;;
1691;SDS011;843;52.054;8.552;2022-10-03T17:49:18;10.60;;;5.77;;
1691;SDS011;843;52.054;8.552;2022-10-03T17:51:48;10.17;;;5.40;;
1691;SDS011;843;52.054;8.552;2022-10-03T17:54:17;12.17;;;6.50;;
1691;SDS011;843;52.054;8.552;2022-10-03T17:56:48;10.50;;;6.10;;
1691;SDS011;843;52.054;8.552;2022-10-03T17:59:18;6.50;;;4.57;;
1691;SDS011;843;52.054;8.552;2022-10-03T18:01:50;10.73;;;5.07;;
1691;SDS011;843;52.054;8.552;2022-10-03T18:04:18;9.63;;;4.47;;
1691;SDS011;843;52.054;8.552;2022-10-03T18:06:48;9.00;;;4.20;;
1691;SDS011;843;52.054;8.552;2022-10-03T18:09:19;8.93;;;4.00;;
1691;SDS011;843;52.054;8.552;2022-10-03T18:11:50;5.80;;;3.70;;
1691;SDS011;843;52.054;8.552;2022-10-03T18:14:20;6.30;;;3.27;;
1691;SDS011;843;52.054;8.552;2022-10-03T18:16:56;8.47;;;3.90;;
1691;SDS011;843;52.054;8.552;2022-10-03T18:19:32;7.17;;;3.73;;
1691;SDS011;843;52.054;8.552;2022-10-03T18:22:10;8.43;;;3.70;;
1691;SDS011;843;52.054;8.552;2022-10-03T18:24:43;9.40;;;4.87;;
1691;SDS011;843;52.054;8.552;2022-10-03T18:30:24;7.90;;;4.90;;
1691;SDS011;843;52.054;8.552;2022-10-03T18:32:57;9.97;;;4.97;;
1691;SDS011;843;52.054;8.552;2022-10-03T18:35:25;7.47;;;4.67;;
1691;SDS011;843;52.054;8.552;2022-10-03T18:37:59;8.83;;;5.07;;
1691;SDS011;843;52.054;8.552;2022-10-03T18:40:30;13.00;;;4.73;;
1691;SDS011;843;52.054;8.552;2022-10-03T18:42:59;9.53;;;5.47;;
1691;SDS011;843;52.054;8.552;2022-10-03T18:45:28;7.87;;;5.20;;
1691;SDS011;843;52.054;8.552;2022-10-03T18:48:01;9.77;;;4.10;;
1691;SDS011;843;52.054;8.552;2022-10-03T18:50:34;9.37;;;3.13;;
1691;SDS011;843;52.054;8.552;2022-10-03T18:53:16;13.53;;;4.70;;
1691;SDS011;843;52.054;8.552;2022-10-03T18:55:50;8.63;;;4.40;;
1691;SDS011;843;52.054;8.552;2022-10-03T18:58:21;8.70;;;4.73;;
1691;SDS011;843;52.054;8.552;2022-10-03T19:00:51;7.80;;;3.97;;
1691;SDS011;843;52.054;8.552;2022-10-03T19:03:23;10.10;;;4.50;;
1691;SDS011;843;52.054;8.552;2022-10-03T19:05:54;7.60;;;3.90;;
1691;SDS011;843;52.054;8.552;2022-10-03T19:08:24;14.73;;;6.50;;
1691;SDS011;843;52.054;8.552;2022-10-03T19:10:53;8.10;;;3.90;;
1691;SDS011;843;52.054;8.552;2022-10-03T19:13:25;8.37;;;4.70;;
1691;SDS011;843;52.054;8.552;2022-10-03T19:16:00;11.70;;;4.40;;
1691;SDS011;843;52.054;8.552;2022-10-03T19:18:37;7.70;;;3.97;;
1691;SDS011;843;52.054;8.552;2022-10-03T19:21:08;10.07;;;4.33;;
1691;SDS011;843;52.054;8.552;2022-10-03T19:23:42;6.70;;;3.53;;
1691;SDS011;843;52.054;8.552;2022-10-03T19:26:17;7.33;;;4.63;;
1691;SDS011;843;52.054;8.552;2022-10-03T19:28:47;7.70;;;4.00;;
1691;SDS011;843;52.054;8.552;2022-10-03T19:31:15;7.43;;;4.47;;
1691;SDS011;843;52.054;8.552;2022-10-03T19:33:47;5.50;;;3.53;;
1691;SDS011;843;52.054;8.552;2022-10-03T19:36:16;9.13;;;5.60;;